Aurora, Illinois
Current Conditions -  °F | °C
As of 10:52 PM on Thursday 30 Oct 2014 (Local Time) from KARR Reporting Station
Overcast Overcast  
Wind Chill:   Ceiling: 12000
Heat Index:   Visibility: 9mi
Dew Point:   Wind: 6mph
Humidity: 76%   Direction: 270°W
Pressure: 30.07"   Gusts: NA
Location:  41.76°N, 88.31°W
Report Text: KARR 310352Z AUTO 27005KT 9SM OVC120 06/02 A3007 RMK AO2 SLP185 T00610022
Loading
Personal Weather Stations






























Interactive Weather Map
Tropical Storm Tracking
New forecast layout! Learn more

10-Day Weather Forecast

Advertisements
Track Severe Weather on mobile